Time,TemperatureF,DewpointF,PressureIn,WindDirection,WindDirectionDegrees,WindSpeedMPH,WindSpeedGustMPH,Humidity,HourlyPrecipIn,Conditions,Clouds,dailyrainin,SoftwareType,DateUTC
2013-02-25 00:13:00,33.3,25.0,29.95,NNE,25,0.0,4.0,71,0.00,,,0.00,weatherlink.com 1.10,2013-02-25 06:13:00,
2013-02-25 00:28:00,33.1,25.0,29.95,ENE,61,0.0,2.0,71,0.00,,,0.00,weatherlink.com 1.10,2013-02-25 06:28:00,
2013-02-25 00:43:00,32.9,24.0,29.94,East,97,0.0,3.0,71,0.00,,,0.00,weatherlink.com 1.10,2013-02-25 06:43:00,
2013-02-25 00:58:00,32.5,24.0,29.94,East,98,0.0,3.0,72,0.00,,,0.00,weatherlink.com 1.10,2013-02-25 06:58:00,
2013-02-25 01:13:00,32.2,24.0,29.93,ENE,78,0.0,3.0,72,0.00,,,0.00,weatherlink.com 1.10,2013-02-25 07:13:00,
2013-02-25 01:28:00,31.8,24.0,29.93,NNE,21,0.0,2.0,73,0.00,,,0.00,weatherlink.com 1.10,2013-02-25 07:28:00,
2013-02-25 01:43:00,31.4,24.0,29.95,NE,37,0.0,0.0,74,0.00,,,0.00,weatherlink.com 1.10,2013-02-25 07:43:00,
2013-02-25 01:58:00,30.5,24.0,29.94,North,5,0.0,1.0,76,0.00,,,0.00,weatherlink.com 1.10,2013-02-25 07:58:00,
2013-02-25 02:13:00,30.5,24.0,29.94,ENE,64,0.0,2.0,76,0.00,,,0.00,weatherlink.com 1.10,2013-02-25 08:13:00,
2013-02-25 02:28:00,30.5,24.0,29.95,ENE,63,0.0,1.0,76,0.00,,,0.00,weatherlink.com 1.10,2013-02-25 08:28:00,
2013-02-25 02:43:00,30.2,24.0,29.95,NE,36,0.0,1.0,76,0.00,,,0.00,weatherlink.com 1.10,2013-02-25 08:43:00,
2013-02-25 02:58:00,30.2,24.0,29.95,NE,46,0.0,1.0,77,0.00,,,0.00,weatherlink.com 1.10,2013-02-25 08:58:00,
2013-02-25 03:13:00,30.0,24.0,29.95,NE,40,0.0,1.0,77,0.00,,,0.00,weatherlink.com 1.10,2013-02-25 09:13:00,
2013-02-25 03:28:00,30.0,24.0,29.94,NE,40,0.0,2.0,77,0.00,,,0.00,weatherlink.com 1.10,2013-02-25 09:28:00,
2013-02-25 03:43:00,29.7,24.0,29.93,NNE,28,0.0,3.0,78,0.00,,,0.00,weatherlink.com 1.10,2013-02-25 09:43:00,
2013-02-25 03:58:00,29.7,24.0,29.93,East,80,0.0,1.0,78,0.00,,,0.00,weatherlink.com 1.10,2013-02-25 09:58:00,
2013-02-25 04:13:00,29.8,24.0,29.93,ENE,72,0.0,0.0,78,0.00,,,0.00,weatherlink.com 1.10,2013-02-25 10:13:00,
2013-02-25 04:28:00,29.7,24.0,29.91,NNE,24,0.0,3.0,78,0.00,,,0.00,weatherlink.com 1.10,2013-02-25 10:28:00,
2013-02-25 04:43:00,29.6,24.0,29.92,NE,46,0.0,1.0,78,0.00,,,0.00,weatherlink.com 1.10,2013-02-25 10:43:00,
2013-02-25 04:58:00,29.5,24.0,29.92,NE,51,0.0,1.0,79,0.00,,,0.00,weatherlink.com 1.10,2013-02-25 10:58:00,
2013-02-25 05:14:00,29.4,24.0,29.92,North,9,0.0,2.0,79,0.00,,,0.00,weatherlink.com 1.10,2013-02-25 11:14:00,
2013-02-25 05:29:00,29.2,23.0,29.92,North,4,0.0,2.0,79,0.00,,,0.00,weatherlink.com 1.10,2013-02-25 11:29:00,
2013-02-25 05:44:00,29.0,24.0,29.93,NNE,33,0.0,2.0,80,0.00,,,0.00,weatherlink.com 1.10,2013-02-25 11:44:00,
2013-02-25 05:59:00,29.0,24.0,29.94,East,101,0.0,2.0,80,0.00,,,0.00,weatherlink.com 1.10,2013-02-25 11:59:00,
2013-02-25 06:14:00,29.2,24.0,29.94,NE,46,0.0,1.0,80,0.00,,,0.00,weatherlink.com 1.10,2013-02-25 12:14:00,
2013-02-25 06:29:00,29.1,24.0,29.94,ENE,62,1.0,1.0,81,0.00,,,0.00,weatherlink.com 1.10,2013-02-25 12:29:00,
2013-02-25 06:44:00,29.2,24.0,29.93,NNE,32,1.0,2.0,81,0.00,,,0.00,weatherlink.com 1.10,2013-02-25 12:44:00,
2013-02-25 06:59:00,29.4,24.0,29.92,NE,50,3.0,3.0,81,0.00,,,0.00,weatherlink.com 1.10,2013-02-25 12:59:00,
2013-02-25 07:14:00,29.4,24.0,29.91,NE,40,1.0,2.0,81,0.00,,,0.00,weatherlink.com 1.10,2013-02-25 13:14:00,
2013-02-25 07:29:00,29.6,24.0,29.92,NE,34,1.0,3.0,81,0.00,,,0.00,weatherlink.com 1.10,2013-02-25 13:29:00,
2013-02-25 07:44:00,29.9,25.0,29.94,ESE,102,0.0,3.0,81,0.00,,,0.00,weatherlink.com 1.10,2013-02-25 13:44:00,
2013-02-25 08:14:00,30.5,25.0,29.93,NE,56,2.0,3.0,80,0.00,,,0.00,weatherlink.com 1.10,2013-02-25 14:14:00,
2013-02-25 08:29:00,30.8,25.0,29.91,NE,48,2.0,5.0,80,0.00,,,0.00,weatherlink.com 1.10,2013-02-25 14:29:00,
2013-02-25 08:44:00,31.2,25.0,29.92,NE,44,0.0,4.0,79,0.00,,,0.00,weatherlink.com 1.10,2013-02-25 14:44:00,
2013-02-25 08:59:00,31.5,26.0,29.92,NE,51,3.0,4.0,79,0.00,,,0.00,weatherlink.com 1.10,2013-02-25 14:59:00,
2013-02-25 09:14:00,31.8,26.0,29.92,NNE,32,0.0,3.0,79,0.00,,,0.00,weatherlink.com 1.10,2013-02-25 15:14:00,
2013-02-25 09:29:00,32.4,26.0,29.92,NNE,30,0.0,5.0,78,0.00,,,0.00,weatherlink.com 1.10,2013-02-25 15:29:00,
2013-02-25 09:44:00,33.2,27.0,29.92,NE,37,0.0,2.0,77,0.00,,,0.00,weatherlink.com 1.10,2013-02-25 15:44:00,
2013-02-25 09:59:00,33.4,27.0,29.91,NNE,26,0.0,3.0,76,0.00,,,0.00,weatherlink.com 1.10,2013-02-25 15:59:00,
2013-02-25 10:14:00,33.5,27.0,29.92,NE,51,0.0,2.0,76,0.00,,,0.00,weatherlink.com 1.10,2013-02-25 16:14:00,
2013-02-25 10:29:00,33.7,27.0,29.90,NE,40,0.0,5.0,76,0.00,,,0.00,weatherlink.com 1.10,2013-02-25 16:29:00,
2013-02-25 10:44:00,33.9,27.0,29.92,North,357,0.0,5.0,75,0.00,,,0.00,weatherlink.com 1.10,2013-02-25 16:44:00,
2013-02-25 10:59:00,34.1,27.0,29.93,NNE,17,0.0,4.0,75,0.00,,,0.00,weatherlink.com 1.10,2013-02-25 16:59:00,
2013-02-25 11:14:00,34.6,27.0,29.92,North,4,0.0,2.0,74,0.00,,,0.00,weatherlink.com 1.10,2013-02-25 17:14:00,
2013-02-25 11:29:00,35.3,27.0,29.91,NE,40,0.0,4.0,73,0.00,,,0.00,weatherlink.com 1.10,2013-02-25 17:29:00,
2013-02-25 11:59:00,35.4,27.0,29.90,NNE,23,0.0,7.0,72,0.00,,,0.00,weatherlink.com 1.10,2013-02-25 17:59:00,
2013-02-25 12:14:00,35.8,27.0,29.89,ENE,69,1.0,6.0,71,0.00,,,0.00,weatherlink.com 1.10,2013-02-25 18:14:00,
2013-02-25 12:29:00,35.9,27.0,29.88,NE,42,0.0,3.0,70,0.00,,,0.00,weatherlink.com 1.10,2013-02-25 18:29:00,
2013-02-25 12:44:00,36.1,28.0,29.87,ENE,64,1.0,6.0,71,0.00,,,0.00,weatherlink.com 1.10,2013-02-25 18:44:00,
2013-02-25 12:59:00,36.1,27.0,29.87,NNE,32,2.0,5.0,70,0.00,,,0.00,weatherlink.com 1.10,2013-02-25 18:59:00,
2013-02-25 13:14:00,36.3,27.0,29.86,NE,40,4.0,5.0,69,0.00,,,0.00,weatherlink.com 1.10,2013-02-25 19:14:00,
2013-02-25 13:44:00,36.5,27.0,29.84,NNE,29,0.0,6.0,69,0.00,,,0.00,weatherlink.com 1.10,2013-02-25 19:44:00,
2013-02-25 13:59:00,36.6,27.0,29.83,NE,48,1.0,4.0,69,0.00,,,0.00,weatherlink.com 1.10,2013-02-25 19:59:00,
2013-02-25 14:15:00,36.7,27.0,29.83,NE,40,1.0,3.0,69,0.00,,,0.00,weatherlink.com 1.10,2013-02-25 20:15:00,
2013-02-25 14:30:00,36.9,27.0,29.84,NNW,335,0.0,3.0,68,0.00,,,0.00,weatherlink.com 1.10,2013-02-25 20:30:00,
2013-02-25 14:45:00,37.1,27.0,29.83,NNW,348,0.0,3.0,67,0.00,,,0.00,weatherlink.com 1.10,2013-02-25 20:45:00,
2013-02-25 15:00:00,37.2,27.0,29.83,NNE,17,0.0,4.0,67,0.00,,,0.00,weatherlink.com 1.10,2013-02-25 21:00:00,
2013-02-25 15:15:00,37.3,28.0,29.84,ENE,62,0.0,2.0,68,0.00,,,0.00,weatherlink.com 1.10,2013-02-25 21:15:00,
2013-02-25 15:30:00,37.1,27.0,29.85,NE,44,0.0,2.0,68,0.00,,,0.00,weatherlink.com 1.10,2013-02-25 21:30:00,
2013-02-25 15:45:00,37.2,27.0,29.84,ENE,59,0.0,3.0,67,0.00,,,0.00,weatherlink.com 1.10,2013-02-25 21:45:00,
2013-02-25 16:00:00,37.1,28.0,29.82,NE,44,2.0,5.0,69,0.00,,,0.00,weatherlink.com 1.10,2013-02-25 22:00:00,
2013-02-25 16:15:00,36.1,29.0,29.82,NNE,31,3.0,9.0,75,0.00,,,0.00,weatherlink.com 1.10,2013-02-25 22:15:00,
2013-02-25 16:30:00,35.4,29.0,29.82,ESE,104,3.0,9.0,78,0.00,,,0.00,weatherlink.com 1.10,2013-02-25 22:30:00,
2013-02-25 16:45:00,34.8,30.0,29.80,NNE,32,5.0,7.0,82,0.00,,,0.00,weatherlink.com 1.10,2013-02-25 22:45:00,
2013-02-25 17:00:00,33.9,30.0,29.80,ESE,110,1.0,10.0,86,0.00,,,0.00,weatherlink.com 1.10,2013-02-25 23:00:00,
2013-02-25 17:15:00,33.0,30.0,29.79,NE,37,0.0,6.0,89,0.00,,,0.00,weatherlink.com 1.10,2013-02-25 23:15:00,
2013-02-25 17:30:00,32.9,31.0,29.78,NNE,12,0.0,6.0,91,0.00,,,0.00,weatherlink.com 1.10,2013-02-25 23:30:00,
2013-02-25 17:45:00,32.9,31.0,29.76,NW,307,4.0,5.0,92,0.01,,,0.01,weatherlink.com 1.10,2013-02-25 23:45:00,
2013-02-25 18:00:00,33.1,31.0,29.75,NE,37,1.0,10.0,92,0.01,,,0.01,weatherlink.com 1.10,2013-02-26 00:00:00,
2013-02-25 18:15:00,33.2,31.0,29.75,NE,47,1.0,10.0,92,0.01,,,0.01,weatherlink.com 1.10,2013-02-26 00:15:00,
2013-02-25 18:30:00,33.6,31.0,29.73,ENE,77,2.0,10.0,91,0.01,,,0.01,weatherlink.com 1.10,2013-02-26 00:30:00,
2013-02-25 18:45:00,33.8,31.0,29.71,SW,231,2.0,7.0,90,0.01,,,0.02,weatherlink.com 1.10,2013-02-26 00:45:00,
2013-02-25 19:00:00,34.1,31.0,29.70,ENE,57,3.0,6.0,89,0.01,,,0.02,weatherlink.com 1.10,2013-02-26 01:00:00,
2013-02-25 19:15:00,34.5,31.0,29.69,NNE,32,2.0,7.0,88,0.01,,,0.02,weatherlink.com 1.10,2013-02-26 01:15:00,
2013-02-25 19:46:00,35.1,31.0,29.70,East,81,3.0,9.0,85,0.00,,,0.02,weatherlink.com 1.10,2013-02-26 01:46:00,
2013-02-25 20:00:00,35.4,31.0,29.76,ENE,65,2.0,11.0,84,0.00,,,0.02,weatherlink.com 1.10,2013-02-26 02:00:00,
2013-02-25 20:15:00,35.5,31.0,29.78,ENE,64,0.0,6.0,83,0.00,,,0.02,weatherlink.com 1.10,2013-02-26 02:15:00,
2013-02-25 20:30:00,34.9,31.0,29.77,NE,44,1.0,4.0,84,0.00,,,0.02,weatherlink.com 1.10,2013-02-26 02:30:00,
2013-02-25 20:46:00,34.4,30.0,29.74,NNE,30,1.0,4.0,85,0.00,,,0.02,weatherlink.com 1.10,2013-02-26 02:46:00,
2013-02-25 21:01:00,34.3,31.0,29.72,ENE,60,0.0,12.0,86,0.00,,,0.02,weatherlink.com 1.10,2013-02-26 03:01:00,
2013-02-25 21:16:00,34.4,31.0,29.73,ENE,71,1.0,5.0,86,0.00,,,0.02,weatherlink.com 1.10,2013-02-26 03:16:00,
2013-02-25 21:31:00,33.9,31.0,29.74,NE,56,5.0,9.0,88,0.00,,,0.02,weatherlink.com 1.10,2013-02-26 03:31:00,
2013-02-25 21:46:00,33.4,31.0,29.73,East,87,2.0,15.0,90,0.00,,,0.02,weatherlink.com 1.10,2013-02-26 03:46:00,
2013-02-25 22:01:00,33.1,31.0,29.72,ENE,71,0.0,7.0,91,0.00,,,0.02,weatherlink.com 1.10,2013-02-26 04:01:00,
2013-02-25 22:16:00,32.7,31.0,29.72,NE,48,0.0,7.0,92,0.00,,,0.02,weatherlink.com 1.10,2013-02-26 04:16:00,
2013-02-25 22:31:00,32.5,31.0,29.70,NNE,29,4.0,7.0,93,0.00,,,0.02,weatherlink.com 1.10,2013-02-26 04:31:00,
2013-02-25 22:46:00,32.4,31.0,29.69,ENE,60,2.0,3.0,93,0.00,,,0.02,weatherlink.com 1.10,2013-02-26 04:46:00,
2013-02-25 23:01:00,32.3,31.0,29.68,NE,54,5.0,7.0,94,0.00,,,0.02,weatherlink.com 1.10,2013-02-26 05:01:00,
2013-02-25 23:16:00,32.3,31.0,29.67,ENE,64,0.0,8.0,94,0.00,,,0.02,weatherlink.com 1.10,2013-02-26 05:16:00,
2013-02-25 23:31:00,32.4,31.0,29.65,NW,311,1.0,8.0,94,0.00,,,0.02,weatherlink.com 1.10,2013-02-26 05:31:00,
2013-02-25 23:46:00,32.3,31.0,29.64,ENE,64,0.0,6.0,94,0.00,,,0.02,weatherlink.com 1.10,2013-02-26 05:46:00,